Time;durP1;ratioP1;P1;durP2;ratioP2;P2;SDS_P1;SDS_P2;PMS_P1;PMS_P2;Temp;Humidity;BMP_temperature;BMP_pressure;BME280_temperature;BME280_humidity;BME280_pressure;Samples;Min_cycle;Max_cycle;Signal;HPM_P1;HPM_P2
2022/12/23 00:01:37;;;;;;;5.25;2.70;;;25.20;99.90;;;;;;5106320;28;20223;-85
2022/12/23 00:04:08;;;;;;;4.13;2.50;;;25.30;99.90;;;;;;5104754;28;20202;-85
2022/12/23 00:06:39;;;;;;;3.90;2.30;;;25.40;99.90;;;;;;5089791;28;20287;-85
2022/12/23 00:09:11;;;;;;;4.28;2.20;;;25.50;99.90;;;;;;5092164;28;20191;-85
2022/12/23 00:15:04;;;;;;;2.92;2.28;;;25.60;99.90;;;;;;5092261;28;20199;-85
2022/12/23 00:17:25;;;;;;;3.25;2.22;;;25.90;99.90;;;;;;5090512;28;20233;-82
2022/12/23 00:19:56;;;;;;;3.00;2.20;;;26.20;99.90;;;;;;5074196;28;20641;-85
2022/12/23 00:25:10;;;;;;;3.80;1.70;;;26.40;99.90;;;;;;5070348;28;20278;-85
2022/12/23 00:28:00;;;;;;;3.25;1.92;;;26.50;99.90;;;;;;5071473;28;20203;-83
2022/12/23 00:30:31;;;;;;;2.63;1.63;;;26.50;99.90;;;;;;5071191;28;20235;-83
2022/12/23 00:33:03;;;;;;;2.67;1.80;;;26.60;99.90;;;;;;5091402;28;20199;-83
2022/12/23 00:35:34;;;;;;;4.38;1.70;;;26.70;99.90;;;;;;5081119;28;20695;-83
2022/12/23 00:38:06;;;;;;;6.88;1.88;;;26.90;99.90;;;;;;5070739;28;20202;-83
2022/12/23 00:43:23;;;;;;;2.15;1.20;;;27.10;99.90;;;;;;5091966;28;20198;-83
2022/12/23 00:45:54;;;;;;;3.13;1.60;;;27.10;99.90;;;;;;5091681;28;20203;-84
2022/12/23 00:51:14;;;;;;;2.75;1.60;;;27.20;99.90;;;;;;5084114;28;20230;-84
2022/12/23 00:53:44;;;;;;;3.20;1.70;;;27.30;99.90;;;;;;5097375;28;20195;-84
2022/12/23 00:56:18;;;;;;;2.55;1.60;;;27.40;99.90;;;;;;5100082;28;20206;-83
2022/12/23 00:58:49;;;;;;;2.47;1.70;;;27.50;99.90;;;;;;5095389;28;20298;-83
2022/12/23 01:06:55;;;;;;;3.97;1.95;;;27.60;99.90;;;;;;5091716;28;20660;-84
2022/12/23 01:09:27;;;;;;;3.40;1.80;;;27.80;99.90;;;;;;5090847;28;20643;-84
2022/12/23 01:11:58;;;;;;;2.75;1.63;;;27.90;99.90;;;;;;5091264;28;20280;-84
2022/12/23 01:14:28;;;;;;;2.78;1.75;;;27.90;99.90;;;;;;5091175;28;20571;-83
2022/12/23 01:16:59;;;;;;;2.75;1.70;;;28.10;99.90;;;;;;5089676;28;20229;-84
2022/12/23 01:19:32;;;;;;;4.25;2.00;;;28.30;99.90;;;;;;5071052;28;20196;-83
2022/12/23 01:22:04;;;;;;;2.30;1.60;;;28.40;99.90;;;;;;5089914;28;20285;-84
2022/12/23 01:24:36;;;;;;;4.00;2.00;;;28.40;99.90;;;;;;5071541;28;20253;-84
2022/12/23 01:27:06;;;;;;;2.88;2.00;;;28.60;99.90;;;;;;5070701;28;20200;-84
2022/12/23 01:29:37;;;;;;;7.68;2.05;;;28.60;99.90;;;;;;5071170;28;20223;-86
2022/12/23 01:32:08;;;;;;;3.65;2.00;;;28.60;99.90;;;;;;5070973;28;20623;-84
2022/12/23 01:34:41;;;;;;;2.30;1.95;;;28.40;99.90;;;;;;5071891;28;20205;-82
2022/12/23 01:37:12;;;;;;;2.60;1.88;;;28.60;99.90;;;;;;5070439;28;20282;-82
2022/12/23 01:39:43;;;;;;;2.75;1.60;;;28.80;99.90;;;;;;5079703;28;20225;-82
2022/12/23 01:45:03;;;;;;;4.47;1.95;;;29.00;99.90;;;;;;5090510;28;20573;-82
2022/12/23 01:47:38;;;;;;;3.50;1.90;;;29.00;99.90;;;;;;5090444;28;20278;-82
2022/12/23 01:50:16;;;;;;;3.08;1.70;;;29.10;99.90;;;;;;5091489;28;20619;-84
2022/12/23 01:52:51;;;;;;;3.90;1.70;;;29.20;99.90;;;;;;5095496;28;20683;-84
2022/12/23 01:55:25;;;;;;;4.97;1.90;;;29.30;99.90;;;;;;5095282;28;20187;-83
2022/12/23 01:58:00;;;;;;;5.45;1.75;;;29.30;99.90;;;;;;5095558;28;20848;-83
2022/12/23 02:09:15;;;;;;;3.78;1.73;;;29.50;99.90;;;;;;5089220;28;20274;-83
2022/12/23 02:12:08;;;;;;;5.80;2.65;;;29.50;99.90;;;;;;5079818;28;20306;-84
2022/12/23 02:17:46;;;;;;;5.00;3.10;;;28.80;99.90;;;;;;5094596;28;20229;-82
2022/12/23 02:20:49;;;;;;;5.50;2.10;;;28.80;99.90;;;;;;5086981;28;20295;-84
2022/12/23 02:23:48;;;;;;;7.97;2.28;;;28.90;99.90;;;;;;5073878;28;20285;-84
2022/12/23 02:26:43;;;;;;;5.43;2.25;;;29.00;99.90;;;;;;5074378;28;20195;-84
2022/12/23 02:29:34;;;;;;;6.60;2.25;;;29.00;99.90;;;;;;5073766;28;20275;-83
2022/12/23 02:32:14;;;;;;;3.75;1.85;;;29.00;99.90;;;;;;5074955;28;20282;-84
2022/12/23 02:34:54;;;;;;;3.60;1.90;;;29.10;99.90;;;;;;5075066;28;20623;-84
2022/12/23 02:37:34;;;;;;;5.32;2.10;;;29.10;99.90;;;;;;5073440;28;20200;-84
2022/12/23 02:40:12;;;;;;;4.65;2.50;;;29.10;99.90;;;;;;5086970;28;20745;-84
2022/12/23 02:42:48;;;;;;;5.30;3.17;;;29.10;99.90;;;;;;5093693;28;20287;-84
2022/12/23 02:45:25;;;;;;;6.70;2.78;;;29.10;99.90;;;;;;5093849;28;20205;-84
2022/12/23 02:48:01;;;;;;;3.17;1.92;;;29.10;99.90;;;;;;5093589;28;20629;-84
2022/12/23 02:50:37;;;;;;;4.93;1.92;;;29.10;99.90;;;;;;5091536;28;20225;-84
2022/12/23 02:53:13;;;;;;;3.35;1.90;;;29.20;99.90;;;;;;5093713;28;20202;-84
2022/12/23 02:55:46;;;;;;;3.72;1.80;;;29.40;99.90;;;;;;5093679;28;20206;-83
2022/12/23 02:58:21;;;;;;;3.28;2.00;;;29.30;99.90;;;;;;5093883;28;20290;-84
2022/12/23 03:00:53;;;;;;;5.60;2.10;;;29.30;99.90;;;;;;5093378;28;20241;-84
2022/12/23 03:03:27;;;;;;;4.28;1.83;;;29.30;99.90;;;;;;5092573;28;20198;-84
2022/12/23 03:05:58;;;;;;;3.80;1.98;;;29.10;99.90;;;;;;5092160;28;20289;-84
2022/12/23 03:08:33;;;;;;;3.15;1.95;;;29.00;99.90;;;;;;5101754;28;20184;-84
2022/12/23 03:11:09;;;;;;;3.28;1.83;;;29.20;99.90;;;;;;5103762;28;20237;-83
2022/12/23 03:14:07;;;;;;;4.93;1.98;;;29.10;99.90;;;;;;5093316;28;20213;-84
2022/12/23 03:16:47;;;;;;;4.10;1.60;;;29.20;99.90;;;;;;5096055;28;20231;-83
2022/12/23 03:19:30;;;;;;;3.95;1.60;;;29.40;99.90;;;;;;5104986;28;20199;-83
2022/12/23 03:22:09;;;;;;;3.42;1.30;;;29.60;99.90;;;;;;5093485;28;20651;-82
2022/12/23 03:24:50;;;;;;;3.28;1.40;;;29.30;99.90;;;;;;5080078;28;20219;-84
2022/12/23 03:27:30;;;;;;;2.10;1.38;;;29.00;99.90;;;;;;5093241;28;20761;-82
2022/12/23 03:30:07;;;;;;;2.45;1.65;;;28.80;99.90;;;;;;5075043;28;20282;-85
2022/12/23 03:32:43;;;;;;;5.32;1.80;;;28.60;99.90;;;;;;5085840;28;20191;-84
2022/12/23 03:35:18;;;;;;;4.03;1.55;;;28.50;99.90;;;;;;5099228;28;20282;-85
2022/12/23 03:37:53;;;;;;;2.97;1.45;;;28.20;99.90;;;;;;5094657;28;20197;-86
2022/12/23 03:40:27;;;;;;;3.65;1.65;;;28.30;99.90;;;;;;5094736;28;20194;-86
2022/12/23 03:43:02;;;;;;;3.17;1.48;;;28.50;99.90;;;;;;5094177;28;20282;-84
2022/12/23 03:45:37;;;;;;;3.55;1.70;;;28.70;99.90;;;;;;5092901;28;20285;-84
2022/12/23 03:48:10;;;;;;;4.45;1.65;;;28.90;99.90;;;;;;5093521;28;20725;-84
2022/12/23 03:50:46;;;;;;;5.30;1.65;;;29.00;99.90;;;;;;5091328;28;20647;-85
2022/12/23 03:53:22;;;;;;;3.38;1.48;;;29.30;99.90;;;;;;5093984;28;20225;-85
2022/12/23 03:55:58;;;;;;;3.85;1.40;;;29.50;99.90;;;;;;5094035;28;20688;-85
2022/12/23 03:58:36;;;;;;;2.90;1.55;;;29.60;99.90;;;;;;5095674;28;20245;-86
2022/12/23 04:01:16;;;;;;;3.58;1.40;;;29.70;99.90;;;;;;5094023;28;20285;-86
2022/12/23 04:03:55;;;;;;;3.72;1.50;;;29.70;99.90;;;;;;5073972;28;20801;-86
2022/12/23 04:06:33;;;;;;;4.57;1.50;;;29.70;99.90;;;;;;5085597;28;20668;-86
2022/12/23 04:09:06;;;;;;;3.75;1.30;;;29.70;99.90;;;;;;5094431;28;20592;-86
2022/12/23 04:11:38;;;;;;;2.90;1.30;;;29.70;99.90;;;;;;5107844;28;20270;-85
2022/12/23 04:14:10;;;;;;;5.75;1.50;;;29.50;99.90;;;;;;5076094;28;20198;-85
2022/12/23 04:16:41;;;;;;;5.03;1.58;;;29.60;99.90;;;;;;5085055;28;20286;-86
2022/12/23 04:19:12;;;;;;;3.70;1.60;;;29.60;99.90;;;;;;5093406;28;20263;-86
2022/12/23 04:21:47;;;;;;;3.33;1.60;;;29.70;99.90;;;;;;5079945;28;20206;-86
2022/12/23 04:24:18;;;;;;;4.63;1.55;;;29.70;99.90;;;;;;5074559;28;20199;-86
2022/12/23 04:26:49;;;;;;;3.13;1.70;;;29.70;99.90;;;;;;5073526;28;20215;-85
2022/12/23 04:29:19;;;;;;;3.72;1.60;;;29.70;99.90;;;;;;5079563;28;20204;-84
2022/12/23 04:31:51;;;;;;;8.60;2.08;;;29.70;99.90;;;;;;5091002;28;20306;-84
2022/12/23 04:34:21;;;;;;;5.55;1.75;;;29.60;99.90;;;;;;5092825;28;20230;-86
2022/12/23 04:36:54;;;;;;;5.28;2.05;;;29.50;99.90;;;;;;5091618;28;20569;-84
2022/12/23 04:39:25;;;;;;;6.85;1.73;;;29.50;99.90;;;;;;5092420;28;20282;-85
2022/12/23 04:41:56;;;;;;;3.40;1.60;;;29.10;99.90;;;;;;5092139;28;20275;-84
2022/12/23 04:44:27;;;;;;;2.70;1.50;;;29.40;99.90;;;;;;5092536;28;20565;-85
2022/12/23 04:46:57;;;;;;;4.60;1.50;;;29.60;99.90;;;;;;5092338;28;20203;-85
2022/12/23 04:49:28;;;;;;;3.97;1.50;;;29.90;99.90;;;;;;5092447;28;20614;-85
2022/12/23 04:52:03;;;;;;;3.42;1.45;;;30.00;99.90;;;;;;5089705;28;20768;-84
2022/12/23 04:54:36;;;;;;;3.25;1.50;;;30.30;99.90;;;;;;5108116;28;20217;-84
2022/12/23 04:57:07;;;;;;;5.57;1.73;;;30.40;99.90;;;;;;5104610;28;20194;-84
2022/12/23 04:59:39;;;;;;;4.95;1.50;;;30.20;99.90;;;;;;5105886;28;20207;-84
2022/12/23 05:02:11;;;;;;;3.03;1.50;;;30.20;99.90;;;;;;5108465;28;20219;-83
2022/12/23 05:04:44;;;;;;;5.70;1.40;;;30.10;99.90;;;;;;5108595;28;20219;-84
2022/12/23 05:07:22;;;;;;;4.18;1.30;;;29.90;99.90;;;;;;5082955;28;20724;-84
2022/12/23 05:09:52;;;;;;;2.85;1.35;;;29.80;99.90;;;;;;5078279;28;20282;-83
2022/12/23 05:12:27;;;;;;;3.72;1.45;;;29.60;99.90;;;;;;5080530;28;20234;-84
2022/12/23 05:14:59;;;;;;;3.85;1.40;;;29.60;99.90;;;;;;5086208;28;20195;-84
2022/12/23 05:17:31;;;;;;;5.15;1.40;;;29.80;99.90;;;;;;5105697;28;20231;-84
2022/12/23 05:20:03;;;;;;;5.93;1.70;;;29.90;99.90;;;;;;5101570;28;20195;-84
2022/12/23 05:22:36;;;;;;;7.70;1.40;;;30.20;99.90;;;;;;5085417;28;20277;-84
2022/12/23 05:25:13;;;;;;;5.57;1.48;;;30.40;99.90;;;;;;5092022;28;20259;-85
2022/12/23 05:28:06;;;;;;;3.33;1.42;;;30.50;99.90;;;;;;5098457;28;20215;-85
2022/12/23 05:30:37;;;;;;;4.43;1.45;;;30.40;99.90;;;;;;5094551;28;20235;-85
2022/12/23 05:33:12;;;;;;;4.18;1.63;;;30.80;99.90;;;;;;5084057;28;20223;-85
2022/12/23 05:35:43;;;;;;;4.72;1.60;;;30.70;99.90;;;;;;5077275;28;20239;-85
2022/12/23 05:38:56;;;;;;;6.85;1.58;;;30.70;99.90;;;;;;5112880;28;20220;-85
2022/12/23 05:41:33;;;;;;;3.38;1.40;;;30.60;99.90;;;;;;5100448;28;20219;-84
2022/12/23 05:47:07;;;;;;;4.85;1.50;;;30.30;99.90;;;;;;5115483;28;20210;-86
2022/12/23 05:52:39;;;;;;;2.95;1.42;;;29.60;99.90;;;;;;5096694;28;20223;-87
2022/12/23 05:55:35;;;;;;;8.25;1.90;;;29.40;99.90;;;;;;5110136;28;20268;-86
2022/12/23 06:01:47;;;;;;;4.72;1.85;;;28.40;99.90;;;;;;5115384;28;20202;-86
2022/12/23 06:04:19;;;;;;;4.07;1.60;;;28.00;99.90;;;;;;5111739;28;20190;-86
2022/12/23 06:07:11;;;;;;;7.05;1.92;;;27.80;99.90;;;;;;5118960;28;20199;-86
2022/12/23 06:09:44;;;;;;;5.95;2.00;;;27.80;99.90;;;;;;5117092;28;20229;-85
2022/12/23 06:12:15;;;;;;;4.00;1.65;;;28.60;99.90;;;;;;5105760;28;20223;-86
2022/12/23 06:14:46;;;;;;;6.18;1.60;;;29.20;99.90;;;;;;5116274;28;20207;-85
2022/12/23 06:17:18;;;;;;;4.68;1.50;;;29.50;99.90;;;;;;5095872;28;20219;-85
2022/12/23 06:19:49;;;;;;;5.28;1.70;;;29.20;99.90;;;;;;5090116;28;20681;-85
2022/12/23 06:22:22;;;;;;;5.75;1.38;;;29.00;99.90;;;;;;5075858;28;20191;-85
2022/12/23 06:24:53;;;;;;;6.03;1.73;;;28.80;99.90;;;;;;5074444;28;20828;-85
2022/12/23 06:27:24;;;;;;;7.65;1.67;;;28.80;99.90;;;;;;5074941;28;20288;-86
2022/12/23 06:29:55;;;;;;;5.97;1.75;;;28.80;99.90;;;;;;5095207;28;20195;-86
2022/12/23 06:32:28;;;;;;;2.90;1.38;;;29.00;99.90;;;;;;5095462;28;20302;-86
2022/12/23 06:34:59;;;;;;;4.80;1.60;;;29.00;99.90;;;;;;5092841;28;20203;-84
2022/12/23 06:37:30;;;;;;;3.97;1.30;;;29.20;99.90;;;;;;5087890;28;20187;-84
2022/12/23 06:40:02;;;;;;;6.85;1.45;;;29.40;99.90;;;;;;5094177;28;20213;-85
2022/12/23 06:42:36;;;;;;;5.40;1.77;;;29.50;99.90;;;;;;5095997;28;20266;-85
2022/12/23 06:45:10;;;;;;;7.65;1.40;;;29.70;99.90;;;;;;5070266;28;20226;-86
2022/12/23 06:47:43;;;;;;;4.88;1.33;;;29.90;99.90;;;;;;5077801;28;20690;-87
2022/12/23 06:50:14;;;;;;;3.50;1.60;;;30.00;99.90;;;;;;5089427;28;20187;-87
2022/12/23 06:52:47;;;;;;;3.85;1.55;;;30.70;99.90;;;;;;5080431;28;20216;-86
2022/12/23 06:55:18;;;;;;;3.60;1.20;;;30.20;99.90;;;;;;5075371;28;20192;-86
2022/12/23 06:57:50;;;;;;;4.30;1.30;;;29.60;99.90;;;;;;5087619;28;20203;-86
2022/12/23 07:03:09;;;;;;;4.13;1.73;;;28.60;99.90;;;;;;5102411;28;20203;-86
2022/12/23 07:05:40;;;;;;;3.58;1.45;;;28.00;99.90;;;;;;5095091;28;20217;-85
2022/12/23 07:08:10;;;;;;;5.18;2.25;;;27.80;99.90;;;;;;5094637;28;20218;-84
2022/12/23 07:10:41;;;;;;;6.80;1.55;;;28.70;99.90;;;;;;5095062;28;20197;-85
2022/12/23 07:13:12;;;;;;;5.10;1.90;;;29.50;99.90;;;;;;5095234;28;20223;-85
2022/12/23 07:15:43;;;;;;;5.40;1.48;;;30.20;99.90;;;;;;5111812;28;20252;-87
2022/12/23 07:18:17;;;;;;;2.00;1.17;;;30.70;99.90;;;;;;5103290;28;20257;-87
2022/12/23 07:20:48;;;;;;;5.35;1.83;;;31.00;99.90;;;;;;5075788;28;20646;-85
2022/12/23 07:23:19;;;;;;;3.47;1.58;;;31.60;99.90;;;;;;5075714;28;20282;-88
2022/12/23 07:25:50;;;;;;;3.20;1.48;;;31.60;99.90;;;;;;5075399;28;20261;-85
2022/12/23 07:31:28;;;;;;;5.03;1.75;;;31.60;99.90;;;;;;5089832;28;20255;-85
2022/12/23 07:34:06;;;;;;;2.88;1.42;;;31.50;99.90;;;;;;5087617;28;20589;-88
2022/12/23 07:37:00;;;;;;;3.72;1.60;;;31.60;99.90;;;;;;5107326;28;20175;-88
2022/12/23 07:39:39;;;;;;;5.25;1.60;;;31.40;99.90;;;;;;5105741;28;20709;-90
2022/12/23 07:43:05;;;;;;;4.88;1.65;;;31.90;99.90;;;;;;5106020;28;20198;-88
2022/12/23 07:45:37;;;;;;;3.25;1.50;;;32.30;99.50;;;;;;5105374;28;20646;-88
2022/12/23 07:51:12;;;;;;;2.83;1.33;;;31.30;99.70;;;;;;5082700;28;20575;-86
2022/12/23 07:53:50;;;;;;;2.38;1.15;;;31.10;99.90;;;;;;5078430;28;20199;-86
2022/12/23 07:59:38;;;;;;;3.95;1.20;;;30.90;99.90;;;;;;5109456;28;20196;-87
2022/12/23 08:02:22;;;;;;;3.10;1.13;;;31.10;99.90;;;;;;5093599;28;20196;-87
2022/12/23 08:04:58;;;;;;;2.83;1.20;;;31.00;99.90;;;;;;5088762;28;20195;-84
2022/12/23 08:07:30;;;;;;;5.03;1.42;;;30.60;99.90;;;;;;5099382;28;20568;-86
2022/12/23 08:10:03;;;;;;;4.55;1.50;;;30.10;99.90;;;;;;5100748;28;20222;-87
2022/12/23 08:12:34;;;;;;;2.25;1.20;;;29.70;99.90;;;;;;5098512;28;20259;-86
2022/12/23 08:15:05;;;;;;;3.45;1.60;;;29.10;99.90;;;;;;5096558;28;20209;-86
2022/12/23 08:17:36;;;;;;;2.75;1.48;;;28.80;99.90;;;;;;5102425;28;20292;-87
2022/12/23 08:20:07;;;;;;;4.38;1.90;;;28.50;99.90;;;;;;5082721;28;20195;-87
2022/12/23 08:22:40;;;;;;;3.55;1.42;;;28.30;99.90;;;;;;5096874;28;20238;-87
2022/12/23 08:25:12;;;;;;;2.15;1.30;;;28.00;99.90;;;;;;5097405;28;20205;-86
2022/12/23 08:27:42;;;;;;;5.00;1.27;;;27.80;99.90;;;;;;5096539;28;20282;-86
2022/12/23 08:30:14;;;;;;;3.60;1.40;;;27.50;99.90;;;;;;5096865;28;20238;-86
2022/12/23 08:32:46;;;;;;;3.97;1.30;;;27.30;99.90;;;;;;5095989;28;20219;-86
2022/12/23 08:35:17;;;;;;;2.53;1.48;;;27.10;99.90;;;;;;5083075;28;20199;-87
2022/12/23 08:37:51;;;;;;;3.05;1.50;;;26.90;99.90;;;;;;5104828;28;20223;-87
2022/12/23 08:40:22;;;;;;;4.82;1.80;;;26.90;99.90;;;;;;5099259;28;20191;-86
2022/12/23 08:42:54;;;;;;;2.75;1.38;;;26.80;99.90;;;;;;5097882;28;20191;-88
2022/12/23 08:45:26;;;;;;;3.00;1.60;;;26.60;99.90;;;;;;5105800;28;20202;-88
2022/12/23 08:47:56;;;;;;;2.65;1.58;;;26.60;99.90;;;;;;5095738;28;20631;-87
2022/12/23 08:56:15;;;;;;;3.72;1.55;;;26.30;99.90;;;;;;5113855;28;20226;-88
2022/12/23 09:01:53;;;;;;;2.38;1.42;;;26.20;99.90;;;;;;5113923;28;20276;-89
2022/12/23 09:07:20;;;;;;;2.95;1.60;;;26.00;99.90;;;;;;5110494;28;20195;-85
2022/12/23 09:09:58;;;;;;;3.00;1.42;;;25.90;99.90;;;;;;5098693;28;20649;-87
2022/12/23 09:12:34;;;;;;;2.55;1.50;;;25.90;99.90;;;;;;5107003;28;20290;-84
2022/12/23 09:15:07;;;;;;;3.30;1.70;;;25.70;99.90;;;;;;5094380;28;20226;-86
2022/12/23 09:23:31;;;;;;;2.72;1.40;;;25.50;99.90;;;;;;5093068;28;20196;-85
2022/12/23 09:26:20;;;;;;;3.50;1.67;;;25.50;99.90;;;;;;5089560;28;20208;-85
2022/12/23 09:28:52;;;;;;;2.78;1.55;;;25.50;99.90;;;;;;5086141;28;20250;-85
2022/12/23 09:31:23;;;;;;;4.43;1.50;;;25.40;99.90;;;;;;5084790;28;20236;-84
2022/12/23 09:36:48;;;;;;;3.33;1.83;;;25.40;99.90;;;;;;5115438;28;20199;-86
2022/12/23 09:39:19;;;;;;;5.68;3.40;;;25.40;99.90;;;;;;5114060;28;20299;-85
2022/12/23 09:42:03;;;;;;;3.45;2.35;;;25.40;99.90;;;;;;5104010;28;20286;-85
2022/12/23 09:44:54;;;;;;;3.47;2.08;;;25.40;99.90;;;;;;5102154;28;20689;-85
2022/12/23 09:47:27;;;;;;;4.38;2.20;;;25.30;99.90;;;;;;5104683;28;20251;-84
2022/12/23 09:50:13;;;;;;;4.32;2.13;;;25.30;99.90;;;;;;5098437;28;20743;-82
2022/12/23 10:01:53;;;;;;;4.18;2.10;;;25.20;99.90;;;;;;5087606;28;20196;-83
2022/12/23 10:04:46;;;;;;;3.65;1.90;;;25.20;99.90;;;;;;5100245;28;20174;-82
2022/12/23 10:07:49;;;;;;;3.95;2.10;;;25.10;99.90;;;;;;5096151;28;20199;-83
2022/12/23 10:10:26;;;;;;;1.77;1.60;;;25.10;99.90;;;;;;5092428;28;20695;-82
2022/12/23 10:12:59;;;;;;;4.40;2.00;;;25.00;99.90;;;;;;5094140;28;20318;-84
2022/12/23 10:15:58;;;;;;;5.03;2.00;;;25.00;99.90;;;;;;5096029;28;20184;-83
2022/12/23 10:18:44;;;;;;;3.67;1.83;;;25.00;99.90;;;;;;5085306;28;20250;-81
2022/12/23 10:21:24;;;;;;;3.15;1.77;;;24.90;99.90;;;;;;5090860;28;20215;-82
2022/12/23 10:24:00;;;;;;;3.95;1.90;;;24.90;99.90;;;;;;5090338;28;20196;-82
2022/12/23 10:26:38;;;;;;;2.88;2.10;;;24.90;99.90;;;;;;5092685;28;20202;-81
2022/12/23 10:29:21;;;;;;;4.75;1.85;;;24.90;99.90;;;;;;5083653;28;20613;-82
2022/12/23 10:32:07;;;;;;;4.45;2.20;;;24.90;99.90;;;;;;5102078;28;20720;-83
2022/12/23 10:34:48;;;;;;;3.80;2.00;;;24.80;99.90;;;;;;5099445;28;20229;-82
2022/12/23 10:37:29;;;;;;;4.22;2.20;;;24.80;99.90;;;;;;5100287;28;20286;-82
2022/12/23 10:40:14;;;;;;;3.60;2.08;;;24.70;99.90;;;;;;5089639;28;20223;-82
2022/12/23 10:42:55;;;;;;;3.35;2.13;;;24.70;99.90;;;;;;5098773;28;20601;-82
2022/12/23 10:45:43;;;;;;;5.85;2.28;;;24.60;99.90;;;;;;5094677;28;20225;-82
2022/12/23 10:48:30;;;;;;;3.47;1.70;;;24.60;99.90;;;;;;5098046;28;20278;-83
2022/12/23 10:51:06;;;;;;;6.47;1.83;;;24.50;99.90;;;;;;5096387;28;20227;-83
2022/12/23 10:53:42;;;;;;;4.90;2.00;;;24.50;99.90;;;;;;5090592;28;20262;-83
2022/12/23 10:56:14;;;;;;;2.90;1.80;;;24.50;99.90;;;;;;5092518;28;20282;-82
2022/12/23 11:04:40;;;;;;;2.60;1.50;;;24.50;99.90;;;;;;5107287;28;20203;-82
2022/12/23 11:07:25;;;;;;;4.82;1.70;;;24.40;99.90;;;;;;5112359;28;20179;-83
2022/12/23 11:10:06;;;;;;;4.30;1.70;;;24.30;99.90;;;;;;5107161;28;20190;-82
2022/12/23 11:12:47;;;;;;;3.38;1.40;;;24.30;99.90;;;;;;5090855;28;20238;-82
2022/12/23 11:15:33;;;;;;;4.53;1.75;;;24.30;99.90;;;;;;5104579;28;20249;-82
2022/12/23 11:18:19;;;;;;;3.53;1.70;;;24.30;99.90;;;;;;5109496;28;20241;-83
2022/12/23 11:21:08;;;;;;;3.47;1.73;;;24.20;99.90;;;;;;5088898;28;20649;-82
2022/12/23 11:29:52;;;;;;;3.10;1.70;;;24.20;99.90;;;;;;5090332;28;20267;-83
2022/12/23 11:32:46;;;;;;;3.03;2.00;;;24.20;99.90;;;;;;5105773;28;20207;-84
2022/12/23 11:35:30;;;;;;;3.75;1.80;;;24.10;99.90;;;;;;5095491;28;20634;-84
2022/12/23 11:38:02;;;;;;;3.97;1.80;;;24.10;99.90;;;;;;5095516;28;20674;-83
2022/12/23 11:40:37;;;;;;;3.88;1.90;;;24.10;99.90;;;;;;5111668;28;20270;-82
2022/12/23 11:43:14;;;;;;;3.13;1.90;;;24.10;99.90;;;;;;5081698;28;20629;-83
2022/12/23 11:45:45;;;;;;;4.22;1.65;;;24.10;99.90;;;;;;5071904;28;20302;-83
2022/12/23 11:48:30;;;;;;;3.47;1.88;;;24.00;99.90;;;;;;5078114;28;20273;-83
2022/12/23 11:51:05;;;;;;;2.03;1.67;;;24.00;99.90;;;;;;5091619;28;20278;-84
2022/12/23 11:53:36;;;;;;;5.95;2.00;;;24.00;99.90;;;;;;5093478;28;20273;-84
2022/12/23 11:56:12;;;;;;;3.97;1.80;;;24.00;99.90;;;;;;5092227;28;20250;-86
2022/12/23 11:58:49;;;;;;;2.17;1.70;;;24.00;99.90;;;;;;5093154;28;20269;-86
2022/12/23 12:01:22;;;;;;;3.38;1.83;;;24.00;99.90;;;;;;5090276;28;20195;-85
2022/12/23 12:03:56;;;;;;;2.97;1.70;;;24.00;99.90;;;;;;5098637;28;20200;-85
2022/12/23 12:06:27;;;;;;;4.38;2.00;;;23.90;99.90;;;;;;5088225;28;20195;-85
2022/12/23 12:09:00;;;;;;;3.33;1.80;;;23.90;99.90;;;;;;5092544;28;20199;-86
2022/12/23 12:11:39;;;;;;;2.45;1.73;;;23.90;99.90;;;;;;5085674;28;20205;-85
2022/12/23 12:14:20;;;;;;;3.40;1.70;;;23.80;99.90;;;;;;5093404;28;20585;-84
2022/12/23 12:16:58;;;;;;;3.38;1.73;;;23.80;99.90;;;;;;5090274;28;20195;-84
2022/12/23 12:19:33;;;;;;;2.67;1.90;;;23.80;99.90;;;;;;5093533;28;20195;-84
2022/12/23 12:22:11;;;;;;;3.03;1.75;;;23.80;99.90;;;;;;5112316;28;20195;-85
2022/12/23 12:24:46;;;;;;;3.78;1.83;;;23.70;99.90;;;;;;5097930;28;20195;-85
2022/12/23 12:27:21;;;;;;;3.92;2.00;;;23.70;99.90;;;;;;5094255;28;20277;-84
2022/12/23 12:29:57;;;;;;;3.78;1.80;;;23.70;99.90;;;;;;5096157;28;20195;-85
2022/12/23 12:32:36;;;;;;;2.95;1.90;;;23.70;99.90;;;;;;5101690;28;20266;-84
2022/12/23 12:35:14;;;;;;;4.05;2.00;;;23.70;99.90;;;;;;5092673;28;20195;-85
2022/12/23 12:37:50;;;;;;;5.22;2.00;;;23.70;99.90;;;;;;5082957;28;20557;-84
2022/12/23 12:40:29;;;;;;;3.58;1.83;;;23.70;99.90;;;;;;5092868;28;20199;-84
2022/12/23 12:43:08;;;;;;;2.80;2.10;;;23.70;99.90;;;;;;5094659;28;20214;-85
2022/12/23 12:45:43;;;;;;;3.28;1.73;;;23.70;99.90;;;;;;5093513;28;20297;-84
2022/12/23 12:48:45;;;;;;;3.03;1.83;;;23.70;99.90;;;;;;5092624;28;20199;-85
2022/12/23 12:51:24;;;;;;;2.80;2.03;;;23.70;99.90;;;;;;5083840;28;20283;-84
2022/12/23 12:54:10;;;;;;;4.32;1.77;;;23.70;99.90;;;;;;5091515;28;20226;-85
2022/12/23 12:56:46;;;;;;;3.60;2.03;;;23.60;99.90;;;;;;5093385;28;20227;-85
2022/12/23 12:59:22;;;;;;;3.75;1.88;;;23.60;99.90;;;;;;5091563;28;20238;-86
2022/12/23 13:02:08;;;;;;;3.63;1.70;;;23.60;99.90;;;;;;5098010;28;20281;-86
2022/12/23 13:05:13;;;;;;;2.50;1.80;;;23.60;99.90;;;;;;5088753;28;20286;-86
2022/12/23 13:07:58;;;;;;;3.92;1.83;;;23.60;99.90;;;;;;5093021;28;20611;-83
2022/12/23 13:10:44;;;;;;;2.88;1.80;;;23.60;99.90;;;;;;5087346;28;20686;-84
2022/12/23 13:13:32;;;;;;;2.85;1.65;;;23.60;99.90;;;;;;5071536;28;20306;-85
2022/12/23 13:16:15;;;;;;;2.88;1.90;;;23.50;99.90;;;;;;5076141;28;20200;-85
2022/12/23 13:18:53;;;;;;;3.40;1.75;;;23.50;99.90;;;;;;5089650;28;20313;-85
2022/12/23 13:21:31;;;;;;;2.50;1.60;;;23.50;99.90;;;;;;5094263;28;20191;-84
2022/12/23 13:24:09;;;;;;;2.85;1.75;;;23.40;99.90;;;;;;5108073;28;20191;-85
2022/12/23 13:26:46;;;;;;;4.28;1.80;;;23.40;99.90;;;;;;5082234;28;20221;-85
2022/12/23 13:29:43;;;;;;;4.85;1.92;;;23.40;99.90;;;;;;5092227;28;20195;-85
2022/12/23 13:32:27;;;;;;;4.85;2.10;;;23.40;99.90;;;;;;5074809;28;20286;-84
2022/12/23 13:35:05;;;;;;;5.78;2.10;;;23.40;99.90;;;;;;5088632;28;20219;-84
2022/12/23 13:37:45;;;;;;;4.30;2.00;;;23.30;99.90;;;;;;5083140;28;20207;-85
2022/12/23 13:40:31;;;;;;;5.47;2.38;;;23.30;99.90;;;;;;5093971;28;20717;-85
2022/12/23 13:43:06;;;;;;;3.97;2.28;;;23.30;99.90;;;;;;5081444;28;20197;-85
2022/12/23 13:45:41;;;;;;;4.22;1.90;;;23.30;99.90;;;;;;5086873;28;20200;-85
2022/12/23 13:48:32;;;;;;;3.78;2.15;;;23.30;99.90;;;;;;5089631;28;20199;-85
2022/12/23 13:51:10;;;;;;;6.53;2.30;;;23.30;99.90;;;;;;5090633;28;20279;-85
2022/12/23 13:53:53;;;;;;;4.20;2.13;;;23.20;99.90;;;;;;5098510;28;20305;-85
2022/12/23 13:56:32;;;;;;;5.95;2.03;;;23.20;99.90;;;;;;5097508;28;20233;-85
2022/12/23 13:59:04;;;;;;;5.95;2.33;;;23.10;99.90;;;;;;5095430;28;20613;-86
2022/12/23 14:01:45;;;;;;;4.68;2.40;;;23.10;99.90;;;;;;5104736;28;20206;-85
2022/12/23 14:04:38;;;;;;;4.13;2.28;;;23.00;99.90;;;;;;5077691;28;20195;-83
2022/12/23 14:07:21;;;;;;;4.15;2.40;;;23.00;99.90;;;;;;5091253;28;20329;-85
2022/12/23 14:09:56;;;;;;;4.95;2.58;;;23.00;99.90;;;;;;5083995;28;20613;-84
2022/12/23 14:12:30;;;;;;;3.92;2.10;;;22.90;99.90;;;;;;5095417;28;20258;-84
2022/12/23 14:15:24;;;;;;;3.78;2.45;;;22.80;99.90;;;;;;5095017;28;20218;-83
2022/12/23 14:18:08;;;;;;;4.40;2.25;;;22.70;99.90;;;;;;5092483;28;20257;-83
2022/12/23 14:20:50;;;;;;;3.88;2.58;;;22.60;99.90;;;;;;5086475;28;20199;-86
2022/12/23 14:23:37;;;;;;;3.58;2.30;;;22.60;99.90;;;;;;5082979;28;20686;-84
2022/12/23 14:26:37;;;;;;;5.32;2.55;;;22.50;99.90;;;;;;5098344;28;20463;-85
2022/12/23 14:29:37;;;;;;;4.18;2.25;;;22.50;99.90;;;;;;5074704;28;20203;-85
2022/12/23 14:32:21;;;;;;;3.42;2.33;;;22.60;99.90;;;;;;5082123;28;20305;-86
2022/12/23 14:35:35;;;;;;;2.95;1.88;;;22.50;99.90;;;;;;5094736;28;20227;-86
2022/12/23 14:38:29;;;;;;;4.13;2.13;;;22.50;99.90;;;;;;5055398;28;20555;-86
2022/12/23 14:41:25;;;;;;;2.97;2.25;;;22.50;99.90;;;;;;5096774;28;20262;-86
2022/12/23 14:44:01;;;;;;;2.53;2.17;;;22.50;99.90;;;;;;5115729;28;20223;-85
2022/12/23 14:47:03;;;;;;;3.35;2.22;;;22.50;99.90;;;;;;5101076;28;20272;-86
2022/12/23 14:49:44;;;;;;;3.83;2.53;;;22.50;99.90;;;;;;5090744;28;20198;-85
2022/12/23 14:52:56;;;;;;;3.53;2.10;;;22.50;99.90;;;;;;5086172;28;20202;-86
2022/12/23 14:56:23;;;;;;;4.13;2.20;;;22.40;99.90;;;;;;5087885;28;20226;-86
2022/12/23 14:59:14;;;;;;;2.65;2.10;;;22.40;99.90;;;;;;5095695;28;20210;-86
2022/12/23 15:01:48;;;;;;;3.10;2.15;;;22.40;99.90;;;;;;5092182;28;20226;-86
2022/12/23 15:04:23;;;;;;;4.07;2.28;;;22.30;99.90;;;;;;5093400;28;20251;-86
2022/12/23 15:06:57;;;;;;;4.20;2.20;;;22.30;99.90;;;;;;5081868;28;20262;-86
2022/12/23 15:09:31;;;;;;;4.20;2.28;;;22.30;99.90;;;;;;5074910;28;20254;-86
2022/12/23 15:12:07;;;;;;;3.17;2.05;;;22.30;99.90;;;;;;5093324;28;20654;-85
2022/12/23 15:14:42;;;;;;;3.45;2.38;;;22.30;99.90;;;;;;5100926;28;20306;-86
2022/12/23 15:17:28;;;;;;;2.95;2.00;;;22.30;99.90;;;;;;5094250;28;20592;-86